sensor_id;sensor_type;location;lat;lon;timestamp;temperature;humidity
14252;DHT22;7210;51.502;10.722;2023-05-24T00:01:10;6.40;99.90
14252;DHT22;7210;51.502;10.722;2023-05-24T00:03:40;6.50;99.90
14252;DHT22;7210;51.502;10.722;2023-05-24T00:06:08;6.60;99.90
14252;DHT22;7210;51.502;10.722;2023-05-24T00:08:36;6.60;99.90
14252;DHT22;7210;51.502;10.722;2023-05-24T00:11:04;6.60;99.90
14252;DHT22;7210;51.502;10.722;2023-05-24T00:13:31;6.60;99.90
14252;DHT22;7210;51.502;10.722;2023-05-24T00:15:58;6.60;99.90
14252;DHT22;7210;51.502;10.722;2023-05-24T00:18:28;6.50;99.90
14252;DHT22;7210;51.502;10.722;2023-05-24T00:20:55;6.50;99.90
14252;DHT22;7210;51.502;10.722;2023-05-24T00:23:29;6.40;99.90
14252;DHT22;7210;51.502;10.722;2023-05-24T00:25:56;6.40;99.90
14252;DHT22;7210;51.502;10.722;2023-05-24T00:28:24;6.30;99.90
14252;DHT22;7210;51.502;10.722;2023-05-24T00:30:51;6.20;99.90
14252;DHT22;7210;51.502;10.722;2023-05-24T00:33:18;6.10;99.90
14252;DHT22;7210;51.502;10.722;2023-05-24T00:35:52;6.10;99.90
14252;DHT22;7210;51.502;10.722;2023-05-24T00:38:22;6.10;99.90
14252;DHT22;7210;51.502;10.722;2023-05-24T00:40:53;6.00;99.90
14252;DHT22;7210;51.502;10.722;2023-05-24T00:43:22;5.90;99.90
14252;DHT22;7210;51.502;10.722;2023-05-24T00:46:09;5.90;99.90
14252;DHT22;7210;51.502;10.722;2023-05-24T00:48:41;5.80;99.90
14252;DHT22;7210;51.502;10.722;2023-05-24T00:51:11;5.70;99.90
14252;DHT22;7210;51.502;10.722;2023-05-24T00:53:40;5.80;99.90
14252;DHT22;7210;51.502;10.722;2023-05-24T00:56:12;5.80;99.90
14252;DHT22;7210;51.502;10.722;2023-05-24T00:58:40;5.90;99.90
14252;DHT22;7210;51.502;10.722;2023-05-24T01:01:22;6.00;99.90
14252;DHT22;7210;51.502;10.722;2023-05-24T01:03:51;6.00;99.90
14252;DHT22;7210;51.502;10.722;2023-05-24T01:06:18;6.00;99.90
14252;DHT22;7210;51.502;10.722;2023-05-24T01:09:01;6.10;99.90
14252;DHT22;7210;51.502;10.722;2023-05-24T01:11:53;6.10;99.90
14252;DHT22;7210;51.502;10.722;2023-05-24T01:14:40;6.00;99.90
14252;DHT22;7210;51.502;10.722;2023-05-24T01:17:32;5.90;99.90
14252;DHT22;7210;51.502;10.722;2023-05-24T01:20:11;5.80;99.90
14252;DHT22;7210;51.502;10.722;2023-05-24T01:26:17;5.70;99.90
14252;DHT22;7210;51.502;10.722;2023-05-24T01:29:00;5.50;99.90
14252;DHT22;7210;51.502;10.722;2023-05-24T01:31:29;5.50;99.90
14252;DHT22;7210;51.502;10.722;2023-05-24T01:33:57;5.60;99.90
14252;DHT22;7210;51.502;10.722;2023-05-24T01:36:28;5.50;99.90
14252;DHT22;7210;51.502;10.722;2023-05-24T01:38:55;5.40;99.90
14252;DHT22;7210;51.502;10.722;2023-05-24T01:41:29;5.40;99.90
14252;DHT22;7210;51.502;10.722;2023-05-24T01:44:12;5.40;99.90
14252;DHT22;7210;51.502;10.722;2023-05-24T01:46:46;5.40;99.90
14252;DHT22;7210;51.502;10.722;2023-05-24T01:49:21;5.40;99.90
14252;DHT22;7210;51.502;10.722;2023-05-24T01:52:00;5.50;99.90
14252;DHT22;7210;51.502;10.722;2023-05-24T01:54:32;5.40;99.90
14252;DHT22;7210;51.502;10.722;2023-05-24T01:57:06;5.40;99.90
14252;DHT22;7210;51.502;10.722;2023-05-24T01:59:39;5.50;99.90
14252;DHT22;7210;51.502;10.722;2023-05-24T02:02:09;5.40;99.90
14252;DHT22;7210;51.502;10.722;2023-05-24T02:07:27;5.30;99.90
14252;DHT22;7210;51.502;10.722;2023-05-24T02:09:55;5.30;99.90
14252;DHT22;7210;51.502;10.722;2023-05-24T02:12:23;5.30;99.90
14252;DHT22;7210;51.502;10.722;2023-05-24T02:17:42;5.10;99.90
14252;DHT22;7210;51.502;10.722;2023-05-24T02:20:11;5.00;99.90
14252;DHT22;7210;51.502;10.722;2023-05-24T02:22:39;5.00;99.90
14252;DHT22;7210;51.502;10.722;2023-05-24T02:25:06;4.90;99.90
14252;DHT22;7210;51.502;10.722;2023-05-24T02:27:34;4.90;99.90
14252;DHT22;7210;51.502;10.722;2023-05-24T02:30:01;4.80;99.90
14252;DHT22;7210;51.502;10.722;2023-05-24T02:32:28;4.70;99.90
14252;DHT22;7210;51.502;10.722;2023-05-24T02:34:57;4.70;99.90
14252;DHT22;7210;51.502;10.722;2023-05-24T02:37:26;4.60;99.90
14252;DHT22;7210;51.502;10.722;2023-05-24T02:39:53;4.60;99.90
14252;DHT22;7210;51.502;10.722;2023-05-24T02:42:20;4.60;99.90
14252;DHT22;7210;51.502;10.722;2023-05-24T02:44:49;4.60;99.90
14252;DHT22;7210;51.502;10.722;2023-05-24T02:47:17;4.60;99.90
14252;DHT22;7210;51.502;10.722;2023-05-24T02:49:45;4.60;99.90
14252;DHT22;7210;51.502;10.722;2023-05-24T02:52:13;4.60;99.90
14252;DHT22;7210;51.502;10.722;2023-05-24T02:54:46;4.60;99.90
14252;DHT22;7210;51.502;10.722;2023-05-24T02:57:13;4.50;99.90
14252;DHT22;7210;51.502;10.722;2023-05-24T02:59:43;4.40;99.90
14252;DHT22;7210;51.502;10.722;2023-05-24T03:02:13;4.50;99.90
14252;DHT22;7210;51.502;10.722;2023-05-24T03:04:43;4.50;99.90
14252;DHT22;7210;51.502;10.722;2023-05-24T03:07:13;4.40;99.90
14252;DHT22;7210;51.502;10.722;2023-05-24T03:09:41;4.40;99.90
14252;DHT22;7210;51.502;10.722;2023-05-24T03:12:13;4.40;99.90
14252;DHT22;7210;51.502;10.722;2023-05-24T03:14:40;4.50;99.90
14252;DHT22;7210;51.502;10.722;2023-05-24T03:17:08;4.40;99.90
14252;DHT22;7210;51.502;10.722;2023-05-24T03:19:35;4.30;99.90
14252;DHT22;7210;51.502;10.722;2023-05-24T03:22:02;4.30;99.90
14252;DHT22;7210;51.502;10.722;2023-05-24T03:24:31;4.30;99.90
14252;DHT22;7210;51.502;10.722;2023-05-24T03:26:59;4.30;99.90
14252;DHT22;7210;51.502;10.722;2023-05-24T03:29:27;4.40;99.90
14252;DHT22;7210;51.502;10.722;2023-05-24T03:31:54;4.30;99.90
14252;DHT22;7210;51.502;10.722;2023-05-24T03:34:21;4.30;99.90
14252;DHT22;7210;51.502;10.722;2023-05-24T03:36:48;4.40;99.90
14252;DHT22;7210;51.502;10.722;2023-05-24T03:39:16;4.30;99.90
14252;DHT22;7210;51.502;10.722;2023-05-24T03:41:58;4.30;99.90
14252;DHT22;7210;51.502;10.722;2023-05-24T03:44:26;4.40;99.90
14252;DHT22;7210;51.502;10.722;2023-05-24T03:46:53;4.40;99.90
14252;DHT22;7210;51.502;10.722;2023-05-24T03:49:20;4.60;99.90
14252;DHT22;7210;51.502;10.722;2023-05-24T03:51:48;4.60;99.90
14252;DHT22;7210;51.502;10.722;2023-05-24T03:54:17;4.60;99.90
14252;DHT22;7210;51.502;10.722;2023-05-24T03:56:44;4.60;99.90
14252;DHT22;7210;51.502;10.722;2023-05-24T03:59:13;4.60;99.90
14252;DHT22;7210;51.502;10.722;2023-05-24T04:01:40;4.60;99.90
14252;DHT22;7210;51.502;10.722;2023-05-24T04:04:08;4.60;99.90
14252;DHT22;7210;51.502;10.722;2023-05-24T04:06:35;4.70;99.90
14252;DHT22;7210;51.502;10.722;2023-05-24T04:09:03;4.70;99.90
14252;DHT22;7210;51.502;10.722;2023-05-24T04:11:30;4.70;99.90
14252;DHT22;7210;51.502;10.722;2023-05-24T04:13:58;4.70;99.90
14252;DHT22;7210;51.502;10.722;2023-05-24T04:16:33;4.70;99.90
14252;DHT22;7210;51.502;10.722;2023-05-24T04:19:03;4.80;99.90
14252;DHT22;7210;51.502;10.722;2023-05-24T04:21:30;4.90;99.90
14252;DHT22;7210;51.502;10.722;2023-05-24T04:24:01;4.90;99.90
14252;DHT22;7210;51.502;10.722;2023-05-24T04:26:29;4.90;99.90
14252;DHT22;7210;51.502;10.722;2023-05-24T04:28:58;4.90;99.90
14252;DHT22;7210;51.502;10.722;2023-05-24T04:31:26;4.90;99.90
14252;DHT22;7210;51.502;10.722;2023-05-24T04:33:56;4.90;99.90
14252;DHT22;7210;51.502;10.722;2023-05-24T04:36:24;4.90;99.90
14252;DHT22;7210;51.502;10.722;2023-05-24T04:38:55;5.00;99.90
14252;DHT22;7210;51.502;10.722;2023-05-24T04:41:27;5.20;99.90
14252;DHT22;7210;51.502;10.722;2023-05-24T04:43:56;5.40;99.90
14252;DHT22;7210;51.502;10.722;2023-05-24T04:46:24;5.50;99.90
14252;DHT22;7210;51.502;10.722;2023-05-24T04:48:52;5.70;99.90
14252;DHT22;7210;51.502;10.722;2023-05-24T04:51:21;5.80;99.90
14252;DHT22;7210;51.502;10.722;2023-05-24T04:53:48;5.90;99.90
14252;DHT22;7210;51.502;10.722;2023-05-24T04:56:15;6.00;99.90
14252;DHT22;7210;51.502;10.722;2023-05-24T04:58:44;6.10;99.90
14252;DHT22;7210;51.502;10.722;2023-05-24T05:01:11;6.20;99.90
14252;DHT22;7210;51.502;10.722;2023-05-24T05:03:43;6.10;99.90
14252;DHT22;7210;51.502;10.722;2023-05-24T05:06:10;6.00;99.90
14252;DHT22;7210;51.502;10.722;2023-05-24T05:08:39;6.00;99.90
14252;DHT22;7210;51.502;10.722;2023-05-24T05:11:07;5.90;99.90
14252;DHT22;7210;51.502;10.722;2023-05-24T05:13:37;5.90;99.90
14252;DHT22;7210;51.502;10.722;2023-05-24T05:16:05;5.90;99.90
14252;DHT22;7210;51.502;10.722;2023-05-24T05:18:32;5.90;99.90
14252;DHT22;7210;51.502;10.722;2023-05-24T05:21:01;5.90;99.90
14252;DHT22;7210;51.502;10.722;2023-05-24T05:23:28;6.00;99.90
14252;DHT22;7210;51.502;10.722;2023-05-24T05:25:57;6.00;99.90
14252;DHT22;7210;51.502;10.722;2023-05-24T05:28:25;6.00;99.90
14252;DHT22;7210;51.502;10.722;2023-05-24T05:30:52;6.20;99.90
14252;DHT22;7210;51.502;10.722;2023-05-24T05:33:21;6.20;99.90
14252;DHT22;7210;51.502;10.722;2023-05-24T05:35:48;6.40;99.90
14252;DHT22;7210;51.502;10.722;2023-05-24T05:38:15;6.60;99.90
14252;DHT22;7210;51.502;10.722;2023-05-24T05:40:42;6.70;99.90
14252;DHT22;7210;51.502;10.722;2023-05-24T05:43:11;6.90;99.90
14252;DHT22;7210;51.502;10.722;2023-05-24T05:45:38;7.10;99.90
14252;DHT22;7210;51.502;10.722;2023-05-24T05:48:06;7.30;99.90
14252;DHT22;7210;51.502;10.722;2023-05-24T05:50:37;7.60;99.90
14252;DHT22;7210;51.502;10.722;2023-05-24T05:53:07;7.90;99.90
14252;DHT22;7210;51.502;10.722;2023-05-24T05:55:34;8.20;99.90
14252;DHT22;7210;51.502;10.722;2023-05-24T05:58:01;8.50;99.90
14252;DHT22;7210;51.502;10.722;2023-05-24T06:00:30;8.70;99.90
14252;DHT22;7210;51.502;10.722;2023-05-24T06:02:57;9.00;99.90
14252;DHT22;7210;51.502;10.722;2023-05-24T06:05:24;9.20;99.90
14252;DHT22;7210;51.502;10.722;2023-05-24T06:07:51;9.50;99.90
14252;DHT22;7210;51.502;10.722;2023-05-24T06:10:19;9.60;99.90
14252;DHT22;7210;51.502;10.722;2023-05-24T06:12:46;9.60;99.90
14252;DHT22;7210;51.502;10.722;2023-05-24T06:15:13;9.60;99.90
14252;DHT22;7210;51.502;10.722;2023-05-24T06:17:41;9.60;99.90
14252;DHT22;7210;51.502;10.722;2023-05-24T06:20:10;9.60;99.90
14252;DHT22;7210;51.502;10.722;2023-05-24T06:22:40;9.60;99.90
14252;DHT22;7210;51.502;10.722;2023-05-24T06:25:08;9.70;99.90
14252;DHT22;7210;51.502;10.722;2023-05-24T06:27:40;9.80;99.90
14252;DHT22;7210;51.502;10.722;2023-05-24T06:30:08;9.80;99.90
14252;DHT22;7210;51.502;10.722;2023-05-24T06:32:35;9.80;99.90
14252;DHT22;7210;51.502;10.722;2023-05-24T06:35:04;9.80;99.90
14252;DHT22;7210;51.502;10.722;2023-05-24T06:37:32;9.80;1.40
14252;DHT22;7210;51.502;10.722;2023-05-24T06:39:59;9.80;99.90
14252;DHT22;7210;51.502;10.722;2023-05-24T06:42:28;9.90;1.00
14252;DHT22;7210;51.502;10.722;2023-05-24T06:44:56;10.10;1.00
14252;DHT22;7210;51.502;10.722;2023-05-24T06:47:23;10.10;1.00
14252;DHT22;7210;51.502;10.722;2023-05-24T06:49:50;10.30;1.00
14252;DHT22;7210;51.502;10.722;2023-05-24T06:52:19;10.40;1.00
14252;DHT22;7210;51.502;10.722;2023-05-24T06:54:46;10.60;1.00
14252;DHT22;7210;51.502;10.722;2023-05-24T06:57:14;10.70;1.00
14252;DHT22;7210;51.502;10.722;2023-05-24T06:59:41;10.80;1.00
14252;DHT22;7210;51.502;10.722;2023-05-24T07:02:09;11.20;1.00
14252;DHT22;7210;51.502;10.722;2023-05-24T07:04:36;11.10;1.00
14252;DHT22;7210;51.502;10.722;2023-05-24T07:07:06;11.00;1.00
14252;DHT22;7210;51.502;10.722;2023-05-24T07:09:45;10.90;1.00
14252;DHT22;7210;51.502;10.722;2023-05-24T07:12:12;10.80;1.00
14252;DHT22;7210;51.502;10.722;2023-05-24T07:14:39;10.70;1.00
14252;DHT22;7210;51.502;10.722;2023-05-24T07:17:07;10.70;1.00
14252;DHT22;7210;51.502;10.722;2023-05-24T07:19:34;10.70;1.00
14252;DHT22;7210;51.502;10.722;2023-05-24T07:22:01;10.90;1.00
14252;DHT22;7210;51.502;10.722;2023-05-24T07:24:29;10.90;1.00
14252;DHT22;7210;51.502;10.722;2023-05-24T07:27:04;11.20;1.00
14252;DHT22;7210;51.502;10.722;2023-05-24T07:29:37;11.60;1.00
14252;DHT22;7210;51.502;10.722;2023-05-24T07:32:05;11.60;1.00
14252;DHT22;7210;51.502;10.722;2023-05-24T07:34:33;11.60;1.00
14252;DHT22;7210;51.502;10.722;2023-05-24T07:37:00;11.70;1.00
14252;DHT22;7210;51.502;10.722;2023-05-24T07:39:27;11.90;1.00
14252;DHT22;7210;51.502;10.722;2023-05-24T07:41:55;12.00;1.00
14252;DHT22;7210;51.502;10.722;2023-05-24T07:44:23;12.10;1.00
14252;DHT22;7210;51.502;10.722;2023-05-24T07:46:51;12.20;1.00
14252;DHT22;7210;51.502;10.722;2023-05-24T07:49:19;12.20;1.00
14252;DHT22;7210;51.502;10.722;2023-05-24T07:51:46;12.20;1.00
14252;DHT22;7210;51.502;10.722;2023-05-24T07:54:14;12.40;1.00
14252;DHT22;7210;51.502;10.722;2023-05-24T07:56:41;12.40;1.00
14252;DHT22;7210;51.502;10.722;2023-05-24T07:59:09;12.30;1.00
14252;DHT22;7210;51.502;10.722;2023-05-24T08:01:37;12.20;1.00
14252;DHT22;7210;51.502;10.722;2023-05-24T08:04:08;12.00;1.00
14252;DHT22;7210;51.502;10.722;2023-05-24T08:06:35;12.00;1.00
14252;DHT22;7210;51.502;10.722;2023-05-24T08:09:03;11.90;1.00
14252;DHT22;7210;51.502;10.722;2023-05-24T08:11:32;11.80;1.00
14252;DHT22;7210;51.502;10.722;2023-05-24T08:13:59;11.90;1.00
14252;DHT22;7210;51.502;10.722;2023-05-24T08:16:26;12.10;1.00
14252;DHT22;7210;51.502;10.722;2023-05-24T08:18:55;12.10;1.00
14252;DHT22;7210;51.502;10.722;2023-05-24T08:21:22;12.10;1.00
14252;DHT22;7210;51.502;10.722;2023-05-24T08:23:51;12.00;1.00
14252;DHT22;7210;51.502;10.722;2023-05-24T08:26:19;12.10;1.00
14252;DHT22;7210;51.502;10.722;2023-05-24T08:28:49;12.40;1.00
14252;DHT22;7210;51.502;10.722;2023-05-24T08:31:20;12.60;1.00
14252;DHT22;7210;51.502;10.722;2023-05-24T08:33:48;13.00;1.00
14252;DHT22;7210;51.502;10.722;2023-05-24T08:36:17;13.10;1.00
14252;DHT22;7210;51.502;10.722;2023-05-24T08:38:44;13.20;1.00
14252;DHT22;7210;51.502;10.722;2023-05-24T08:41:12;13.00;1.00
14252;DHT22;7210;51.502;10.722;2023-05-24T08:43:41;13.00;1.00
14252;DHT22;7210;51.502;10.722;2023-05-24T08:46:09;13.20;1.00
14252;DHT22;7210;51.502;10.722;2023-05-24T08:48:44;13.20;1.00
14252;DHT22;7210;51.502;10.722;2023-05-24T08:51:14;13.20;1.00
14252;DHT22;7210;51.502;10.722;2023-05-24T08:53:45;13.30;1.00
14252;DHT22;7210;51.502;10.722;2023-05-24T08:56:15;13.30;1.00
14252;DHT22;7210;51.502;10.722;2023-05-24T08:58:44;13.20;1.00
14252;DHT22;7210;51.502;10.722;2023-05-24T09:01:13;13.00;1.00
14252;DHT22;7210;51.502;10.722;2023-05-24T09:03:42;12.90;1.00
14252;DHT22;7210;51.502;10.722;2023-05-24T09:06:12;12.90;1.00
14252;DHT22;7210;51.502;10.722;2023-05-24T09:08:43;12.90;1.00
14252;DHT22;7210;51.502;10.722;2023-05-24T09:11:12;12.90;1.00
14252;DHT22;7210;51.502;10.722;2023-05-24T09:13:41;12.90;1.00
14252;DHT22;7210;51.502;10.722;2023-05-24T09:16:10;13.20;1.00
14252;DHT22;7210;51.502;10.722;2023-05-24T09:18:39;13.40;1.00
14252;DHT22;7210;51.502;10.722;2023-05-24T09:21:07;13.60;1.00
14252;DHT22;7210;51.502;10.722;2023-05-24T09:23:35;13.90;1.00
14252;DHT22;7210;51.502;10.722;2023-05-24T09:26:08;13.90;1.00
14252;DHT22;7210;51.502;10.722;2023-05-24T09:28:36;14.10;1.00
14252;DHT22;7210;51.502;10.722;2023-05-24T09:31:06;14.20;1.00
14252;DHT22;7210;51.502;10.722;2023-05-24T09:33:33;14.10;1.00
14252;DHT22;7210;51.502;10.722;2023-05-24T09:36:03;14.30;1.00
14252;DHT22;7210;51.502;10.722;2023-05-24T09:38:32;14.10;1.00
14252;DHT22;7210;51.502;10.722;2023-05-24T09:41:01;14.30;1.00
14252;DHT22;7210;51.502;10.722;2023-05-24T09:43:33;14.30;1.00
14252;DHT22;7210;51.502;10.722;2023-05-24T09:46:01;14.10;1.00
14252;DHT22;7210;51.502;10.722;2023-05-24T09:48:29;13.90;1.00
14252;DHT22;7210;51.502;10.722;2023-05-24T09:51:01;13.90;1.00
14252;DHT22;7210;51.502;10.722;2023-05-24T09:53:31;14.10;1.00
14252;DHT22;7210;51.502;10.722;2023-05-24T09:55:59;14.30;1.00
14252;DHT22;7210;51.502;10.722;2023-05-24T09:58:31;14.70;1.00
14252;DHT22;7210;51.502;10.722;2023-05-24T10:01:03;14.90;1.00
14252;DHT22;7210;51.502;10.722;2023-05-24T10:03:33;14.80;1.00
14252;DHT22;7210;51.502;10.722;2023-05-24T10:06:02;14.70;1.00
14252;DHT22;7210;51.502;10.722;2023-05-24T10:08:33;14.60;1.00
14252;DHT22;7210;51.502;10.722;2023-05-24T10:11:02;14.50;1.00
14252;DHT22;7210;51.502;10.722;2023-05-24T10:13:32;14.30;1.00
14252;DHT22;7210;51.502;10.722;2023-05-24T10:16:00;14.20;1.00
14252;DHT22;7210;51.502;10.722;2023-05-24T10:18:28;14.30;1.00
14252;DHT22;7210;51.502;10.722;2023-05-24T10:20:55;14.50;1.00
14252;DHT22;7210;51.502;10.722;2023-05-24T10:23:26;14.60;1.00
14252;DHT22;7210;51.502;10.722;2023-05-24T10:26:02;14.70;1.00
14252;DHT22;7210;51.502;10.722;2023-05-24T10:28:35;14.70;1.00
14252;DHT22;7210;51.502;10.722;2023-05-24T10:31:10;14.90;1.00
14252;DHT22;7210;51.502;10.722;2023-05-24T10:33:42;14.90;1.00
14252;DHT22;7210;51.502;10.722;2023-05-24T10:36:13;14.90;1.00
14252;DHT22;7210;51.502;10.722;2023-05-24T10:38:42;14.90;1.00
14252;DHT22;7210;51.502;10.722;2023-05-24T10:41:12;15.10;1.00
14252;DHT22;7210;51.502;10.722;2023-05-24T10:43:46;15.30;1.00
14252;DHT22;7210;51.502;10.722;2023-05-24T10:46:14;15.50;1.00
14252;DHT22;7210;51.502;10.722;2023-05-24T10:48:42;15.90;1.00
14252;DHT22;7210;51.502;10.722;2023-05-24T10:51:37;16.10;1.00
14252;DHT22;7210;51.502;10.722;2023-05-24T10:54:16;16.00;1.00
14252;DHT22;7210;51.502;10.722;2023-05-24T10:56:46;15.90;1.00
14252;DHT22;7210;51.502;10.722;2023-05-24T10:59:29;16.10;1.00
14252;DHT22;7210;51.502;10.722;2023-05-24T11:02:03;16.30;1.00
14252;DHT22;7210;51.502;10.722;2023-05-24T11:04:36;16.10;1.00
14252;DHT22;7210;51.502;10.722;2023-05-24T11:07:08;15.90;1.00
14252;DHT22;7210;51.502;10.722;2023-05-24T11:09:37;16.00;1.00
14252;DHT22;7210;51.502;10.722;2023-05-24T11:12:13;16.20;1.00
14252;DHT22;7210;51.502;10.722;2023-05-24T11:14:47;16.20;1.00
14252;DHT22;7210;51.502;10.722;2023-05-24T11:17:17;16.30;1.00
14252;DHT22;7210;51.502;10.722;2023-05-24T11:19:48;16.30;1.00
14252;DHT22;7210;51.502;10.722;2023-05-24T11:22:19;16.10;1.00
14252;DHT22;7210;51.502;10.722;2023-05-24T11:24:47;15.80;1.00
14252;DHT22;7210;51.502;10.722;2023-05-24T11:27:16;15.60;1.00
14252;DHT22;7210;51.502;10.722;2023-05-24T11:29:46;15.60;1.00
14252;DHT22;7210;51.502;10.722;2023-05-24T11:32:15;15.90;1.00
14252;DHT22;7210;51.502;10.722;2023-05-24T11:34:45;16.20;1.00
14252;DHT22;7210;51.502;10.722;2023-05-24T11:37:13;16.00;1.00
14252;DHT22;7210;51.502;10.722;2023-05-24T11:39:41;16.00;1.00
14252;DHT22;7210;51.502;10.722;2023-05-24T11:42:08;16.40;1.00
14252;DHT22;7210;51.502;10.722;2023-05-24T11:44:35;16.70;1.00
14252;DHT22;7210;51.502;10.722;2023-05-24T11:47:07;16.60;1.00
14252;DHT22;7210;51.502;10.722;2023-05-24T11:49:35;16.10;1.00
14252;DHT22;7210;51.502;10.722;2023-05-24T11:52:07;15.50;1.00
14252;DHT22;7210;51.502;10.722;2023-05-24T11:54:37;15.30;1.00
14252;DHT22;7210;51.502;10.722;2023-05-24T11:57:05;15.50;1.00
14252;DHT22;7210;51.502;10.722;2023-05-24T11:59:32;15.60;1.00
14252;DHT22;7210;51.502;10.722;2023-05-24T12:02:04;15.80;1.00
14252;DHT22;7210;51.502;10.722;2023-05-24T12:04:34;15.90;1.00
14252;DHT22;7210;51.502;10.722;2023-05-24T12:07:01;16.20;1.00
14252;DHT22;7210;51.502;10.722;2023-05-24T12:09:29;16.40;1.00
14252;DHT22;7210;51.502;10.722;2023-05-24T12:11:57;16.70;1.00
14252;DHT22;7210;51.502;10.722;2023-05-24T12:14:26;16.80;1.00
14252;DHT22;7210;51.502;10.722;2023-05-24T12:16:56;16.70;1.00
14252;DHT22;7210;51.502;10.722;2023-05-24T12:19:23;16.80;1.00
14252;DHT22;7210;51.502;10.722;2023-05-24T12:21:56;16.50;1.00
14252;DHT22;7210;51.502;10.722;2023-05-24T12:24:25;16.50;1.00
14252;DHT22;7210;51.502;10.722;2023-05-24T12:26:58;16.60;1.00
14252;DHT22;7210;51.502;10.722;2023-05-24T12:29:31;16.80;1.00
14252;DHT22;7210;51.502;10.722;2023-05-24T12:32:00;17.00;1.00
14252;DHT22;7210;51.502;10.722;2023-05-24T12:34:28;17.00;1.00
14252;DHT22;7210;51.502;10.722;2023-05-24T12:36:58;16.90;1.00
14252;DHT22;7210;51.502;10.722;2023-05-24T12:39:27;16.70;1.00
14252;DHT22;7210;51.502;10.722;2023-05-24T12:41:59;16.70;1.00
14252;DHT22;7210;51.502;10.722;2023-05-24T12:44:28;16.60;1.00
14252;DHT22;7210;51.502;10.722;2023-05-24T12:46:57;16.40;1.00
14252;DHT22;7210;51.502;10.722;2023-05-24T12:49:25;16.20;1.00
14252;DHT22;7210;51.502;10.722;2023-05-24T12:51:57;16.30;1.00
14252;DHT22;7210;51.502;10.722;2023-05-24T12:54:25;16.10;1.00
14252;DHT22;7210;51.502;10.722;2023-05-24T12:56:54;15.90;1.00
14252;DHT22;7210;51.502;10.722;2023-05-24T12:59:21;15.60;1.00
14252;DHT22;7210;51.502;10.722;2023-05-24T13:01:49;15.40;1.00
14252;DHT22;7210;51.502;10.722;2023-05-24T13:04:17;15.20;1.00
14252;DHT22;7210;51.502;10.722;2023-05-24T13:06:45;15.20;1.00
14252;DHT22;7210;51.502;10.722;2023-05-24T13:09:15;15.20;1.00
14252;DHT22;7210;51.502;10.722;2023-05-24T13:11:43;15.00;1.00
14252;DHT22;7210;51.502;10.722;2023-05-24T13:14:11;15.00;1.00
14252;DHT22;7210;51.502;10.722;2023-05-24T13:16:38;15.10;1.00
14252;DHT22;7210;51.502;10.722;2023-05-24T13:19:05;15.10;1.00
14252;DHT22;7210;51.502;10.722;2023-05-24T13:21:32;15.10;1.00
14252;DHT22;7210;51.502;10.722;2023-05-24T13:24:01;15.20;1.00
14252;DHT22;7210;51.502;10.722;2023-05-24T13:26:31;15.30;1.00
14252;DHT22;7210;51.502;10.722;2023-05-24T13:29:01;15.40;1.00
14252;DHT22;7210;51.502;10.722;2023-05-24T13:31:29;15.70;1.00
14252;DHT22;7210;51.502;10.722;2023-05-24T13:33:57;15.80;1.00
14252;DHT22;7210;51.502;10.722;2023-05-24T13:36:24;15.90;1.00
14252;DHT22;7210;51.502;10.722;2023-05-24T13:38:52;15.90;1.00
14252;DHT22;7210;51.502;10.722;2023-05-24T13:41:19;15.90;1.00
14252;DHT22;7210;51.502;10.722;2023-05-24T13:43:51;16.00;1.00
14252;DHT22;7210;51.502;10.722;2023-05-24T13:46:19;16.20;1.00
14252;DHT22;7210;51.502;10.722;2023-05-24T13:48:46;16.40;1.00
14252;DHT22;7210;51.502;10.722;2023-05-24T13:51:13;16.70;1.00
14252;DHT22;7210;51.502;10.722;2023-05-24T13:53:43;16.80;1.00
14252;DHT22;7210;51.502;10.722;2023-05-24T13:56:13;16.60;1.00
14252;DHT22;7210;51.502;10.722;2023-05-24T13:58:42;16.30;1.00
14252;DHT22;7210;51.502;10.722;2023-05-24T14:01:10;16.20;1.00
14252;DHT22;7210;51.502;10.722;2023-05-24T14:03:37;16.20;1.00
14252;DHT22;7210;51.502;10.722;2023-05-24T14:06:05;16.20;1.00
14252;DHT22;7210;51.502;10.722;2023-05-24T14:08:33;16.00;1.00
14252;DHT22;7210;51.502;10.722;2023-05-24T14:11:00;15.90;1.00
14252;DHT22;7210;51.502;10.722;2023-05-24T14:13:28;15.60;1.00
14252;DHT22;7210;51.502;10.722;2023-05-24T14:15:55;15.50;1.00
14252;DHT22;7210;51.502;10.722;2023-05-24T14:18:27;15.40;1.00
14252;DHT22;7210;51.502;10.722;2023-05-24T14:20:54;15.40;1.00
14252;DHT22;7210;51.502;10.722;2023-05-24T14:23:21;15.60;1.00
14252;DHT22;7210;51.502;10.722;2023-05-24T14:25:48;15.50;1.00
14252;DHT22;7210;51.502;10.722;2023-05-24T14:28:16;15.50;1.00
14252;DHT22;7210;51.502;10.722;2023-05-24T14:30:43;15.40;1.00
14252;DHT22;7210;51.502;10.722;2023-05-24T14:33:11;15.60;1.00
14252;DHT22;7210;51.502;10.722;2023-05-24T14:35:39;15.90;1.00
14252;DHT22;7210;51.502;10.722;2023-05-24T14:38:08;16.20;1.00
14252;DHT22;7210;51.502;10.722;2023-05-24T14:40:37;16.40;1.00
14252;DHT22;7210;51.502;10.722;2023-05-24T14:43:05;16.50;1.00
14252;DHT22;7210;51.502;10.722;2023-05-24T14:45:34;16.50;1.00
14252;DHT22;7210;51.502;10.722;2023-05-24T14:48:03;16.40;1.00
14252;DHT22;7210;51.502;10.722;2023-05-24T14:50:30;16.30;1.00
14252;DHT22;7210;51.502;10.722;2023-05-24T14:52:59;16.30;1.00
14252;DHT22;7210;51.502;10.722;2023-05-24T14:55:26;16.20;1.00
14252;DHT22;7210;51.502;10.722;2023-05-24T14:57:53;16.40;1.00
14252;DHT22;7210;51.502;10.722;2023-05-24T15:00:21;16.80;1.00
14252;DHT22;7210;51.502;10.722;2023-05-24T15:02:48;16.70;1.00
14252;DHT22;7210;51.502;10.722;2023-05-24T15:05:15;16.80;1.00
14252;DHT22;7210;51.502;10.722;2023-05-24T15:07:42;16.70;1.00
14252;DHT22;7210;51.502;10.722;2023-05-24T15:10:15;16.40;1.00
14252;DHT22;7210;51.502;10.722;2023-05-24T15:12:43;16.20;1.00
14252;DHT22;7210;51.502;10.722;2023-05-24T15:15:10;16.20;1.00
14252;DHT22;7210;51.502;10.722;2023-05-24T15:17:38;16.20;1.00
14252;DHT22;7210;51.502;10.722;2023-05-24T15:20:06;16.10;1.00
14252;DHT22;7210;51.502;10.722;2023-05-24T15:22:33;16.10;1.00
14252;DHT22;7210;51.502;10.722;2023-05-24T15:25:01;16.10;1.00
14252;DHT22;7210;51.502;10.722;2023-05-24T15:27:29;16.50;1.00
14252;DHT22;7210;51.502;10.722;2023-05-24T15:29:56;17.00;1.00
14252;DHT22;7210;51.502;10.722;2023-05-24T15:32:24;17.30;1.00
14252;DHT22;7210;51.502;10.722;2023-05-24T15:34:51;17.40;1.00
14252;DHT22;7210;51.502;10.722;2023-05-24T15:37:18;17.40;1.00
14252;DHT22;7210;51.502;10.722;2023-05-24T15:39:47;16.90;1.00
14252;DHT22;7210;51.502;10.722;2023-05-24T15:42:14;16.80;1.00
14252;DHT22;7210;51.502;10.722;2023-05-24T15:44:43;16.70;1.00
14252;DHT22;7210;51.502;10.722;2023-05-24T15:47:11;16.80;1.00
14252;DHT22;7210;51.502;10.722;2023-05-24T15:49:43;16.80;1.00
14252;DHT22;7210;51.502;10.722;2023-05-24T15:52:11;16.80;1.00
14252;DHT22;7210;51.502;10.722;2023-05-24T15:54:43;16.60;1.00
14252;DHT22;7210;51.502;10.722;2023-05-24T15:57:10;16.50;1.00
14252;DHT22;7210;51.502;10.722;2023-05-24T15:59:45;16.50;1.00
14252;DHT22;7210;51.502;10.722;2023-05-24T16:02:12;16.60;1.00
14252;DHT22;7210;51.502;10.722;2023-05-24T16:04:39;16.90;1.00
14252;DHT22;7210;51.502;10.722;2023-05-24T16:07:06;17.00;1.00
14252;DHT22;7210;51.502;10.722;2023-05-24T16:09:33;17.00;1.00